Terminal Aerodrome Forecast
Issued by NWS

Home | Current Version | Previous Version | Text Only | Print | Product List | Glossary Off
Versions: 1 2 3 4 5 6 7 8 9 10 11 12 13 14 15 16

000
FTUS43 KMPX 221136
TAFRNH
TAF
KRNH 221136Z 2212/2312 29004KT P6SM BKN011
      TEMPO 2216/2217 BKN009
     FM221700 22004KT P6SM SCT020 BKN090
     FM222200 21010KT P6SM SCT200
     FM230700 21013KT P6SM OVC070=

USA.gov is the U.S. government's official web portal to all federal, state and local government web resources and services.